sensor_id;sensor_type;location;lat;lon;timestamp;temperature;humidity
1181;DHT22;579;52.046;8.532;2022-07-12T00:00:39;17.00;1.00
1181;DHT22;579;52.046;8.532;2022-07-12T00:03:05;17.10;1.00
1181;DHT22;579;52.046;8.532;2022-07-12T00:05:31;17.10;1.00
1181;DHT22;579;52.046;8.532;2022-07-12T00:07:57;17.40;1.00
1181;DHT22;579;52.046;8.532;2022-07-12T00:10:24;17.10;1.00
1181;DHT22;579;52.046;8.532;2022-07-12T00:12:50;16.90;1.00
1181;DHT22;579;52.046;8.532;2022-07-12T00:17:56;16.80;1.00
1181;DHT22;579;52.046;8.532;2022-07-12T00:20:22;16.60;1.00
1181;DHT22;579;52.046;8.532;2022-07-12T00:22:48;16.50;1.00
1181;DHT22;579;52.046;8.532;2022-07-12T00:25:14;16.40;1.00
1181;DHT22;579;52.046;8.532;2022-07-12T00:27:41;16.50;1.00
1181;DHT22;579;52.046;8.532;2022-07-12T00:30:08;16.50;1.00
1181;DHT22;579;52.046;8.532;2022-07-12T00:32:35;16.50;1.00
1181;DHT22;579;52.046;8.532;2022-07-12T00:40:07;16.60;1.00
1181;DHT22;579;52.046;8.532;2022-07-12T00:42:35;16.50;1.00
1181;DHT22;579;52.046;8.532;2022-07-12T00:45:01;16.30;1.00
1181;DHT22;579;52.046;8.532;2022-07-12T00:47:34;16.20;1.00
1181;DHT22;579;52.046;8.532;2022-07-12T00:50:04;16.20;1.00
1181;DHT22;579;52.046;8.532;2022-07-12T00:52:32;16.20;1.00
1181;DHT22;579;52.046;8.532;2022-07-12T00:54:59;16.10;1.00
1181;DHT22;579;52.046;8.532;2022-07-12T01:01:58;16.30;1.00
1181;DHT22;579;52.046;8.532;2022-07-12T01:04:24;16.00;1.00
1181;DHT22;579;52.046;8.532;2022-07-12T01:06:51;16.00;1.00
1181;DHT22;579;52.046;8.532;2022-07-12T01:09:18;16.10;1.00
1181;DHT22;579;52.046;8.532;2022-07-12T01:11:44;16.20;1.00
1181;DHT22;579;52.046;8.532;2022-07-12T01:14:11;16.00;1.00
1181;DHT22;579;52.046;8.532;2022-07-12T01:16:39;15.90;1.00
1181;DHT22;579;52.046;8.532;2022-07-12T01:24:11;16.20;1.00
1181;DHT22;579;52.046;8.532;2022-07-12T01:26:37;16.30;1.00
1181;DHT22;579;52.046;8.532;2022-07-12T01:29:05;16.40;1.00
1181;DHT22;579;52.046;8.532;2022-07-12T01:31:33;16.10;1.00
1181;DHT22;579;52.046;8.532;2022-07-12T01:34:01;16.10;1.00
1181;DHT22;579;52.046;8.532;2022-07-12T01:36:27;16.00;1.00
1181;DHT22;579;52.046;8.532;2022-07-12T01:38:54;16.00;1.00
1181;DHT22;579;52.046;8.532;2022-07-12T01:46:23;15.90;1.00
1181;DHT22;579;52.046;8.532;2022-07-12T01:48:49;15.90;1.00
1181;DHT22;579;52.046;8.532;2022-07-12T01:51:16;15.70;1.00
1181;DHT22;579;52.046;8.532;2022-07-12T01:53:42;15.70;1.00
1181;DHT22;579;52.046;8.532;2022-07-12T01:56:08;15.70;1.00
1181;DHT22;579;52.046;8.532;2022-07-12T01:58:35;15.90;1.00
1181;DHT22;579;52.046;8.532;2022-07-12T02:01:02;15.70;1.00
1181;DHT22;579;52.046;8.532;2022-07-12T02:06:08;15.70;1.00
1181;DHT22;579;52.046;8.532;2022-07-12T02:08:34;15.70;1.00
1181;DHT22;579;52.046;8.532;2022-07-12T02:11:01;15.60;1.00
1181;DHT22;579;52.046;8.532;2022-07-12T02:13:27;15.50;1.00
1181;DHT22;579;52.046;8.532;2022-07-12T02:15:53;15.50;1.00
1181;DHT22;579;52.046;8.532;2022-07-12T02:18:20;15.40;1.00
1181;DHT22;579;52.046;8.532;2022-07-12T02:20:46;15.70;1.00
1181;DHT22;579;52.046;8.532;2022-07-12T02:26:58;15.50;1.00
1181;DHT22;579;52.046;8.532;2022-07-12T02:29:25;15.40;1.00
1181;DHT22;579;52.046;8.532;2022-07-12T02:31:51;15.40;1.00
1181;DHT22;579;52.046;8.532;2022-07-12T02:34:18;15.30;1.00
1181;DHT22;579;52.046;8.532;2022-07-12T02:36:44;15.30;1.00
1181;DHT22;579;52.046;8.532;2022-07-12T02:39:11;15.40;1.00
1181;DHT22;579;52.046;8.532;2022-07-12T02:41:37;15.20;1.00
1181;DHT22;579;52.046;8.532;2022-07-12T02:47:56;15.20;1.00
1181;DHT22;579;52.046;8.532;2022-07-12T02:50:23;15.20;1.00
1181;DHT22;579;52.046;8.532;2022-07-12T02:52:49;15.10;1.00
1181;DHT22;579;52.046;8.532;2022-07-12T02:55:15;15.10;1.00
1181;DHT22;579;52.046;8.532;2022-07-12T02:57:42;15.20;1.00
1181;DHT22;579;52.046;8.532;2022-07-12T03:00:09;15.10;1.00
1181;DHT22;579;52.046;8.532;2022-07-12T03:02:36;15.10;1.00
1181;DHT22;579;52.046;8.532;2022-07-12T03:10:08;15.30;1.00
1181;DHT22;579;52.046;8.532;2022-07-12T03:12:35;15.80;1.00
1181;DHT22;579;52.046;8.532;2022-07-12T03:15:01;15.70;1.00
1181;DHT22;579;52.046;8.532;2022-07-12T03:17:28;15.50;1.00
1181;DHT22;579;52.046;8.532;2022-07-12T03:19:54;15.60;1.00
1181;DHT22;579;52.046;8.532;2022-07-12T03:22:20;15.70;1.00
1181;DHT22;579;52.046;8.532;2022-07-12T03:24:46;15.80;1.00
1181;DHT22;579;52.046;8.532;2022-07-12T03:30:58;15.80;1.00
1181;DHT22;579;52.046;8.532;2022-07-12T03:33:25;15.80;1.00
1181;DHT22;579;52.046;8.532;2022-07-12T03:35:51;15.80;1.00
1181;DHT22;579;52.046;8.532;2022-07-12T03:38:17;16.20;1.00
1181;DHT22;579;52.046;8.532;2022-07-12T03:40:44;16.00;1.00
1181;DHT22;579;52.046;8.532;2022-07-12T03:43:10;16.00;1.00
1181;DHT22;579;52.046;8.532;2022-07-12T03:45:37;16.10;1.00
1181;DHT22;579;52.046;8.532;2022-07-12T03:53:09;16.20;1.00
1181;DHT22;579;52.046;8.532;2022-07-12T03:55:35;16.00;1.00
1181;DHT22;579;52.046;8.532;2022-07-12T03:58:02;16.00;1.00
1181;DHT22;579;52.046;8.532;2022-07-12T04:00:29;16.30;1.00
1181;DHT22;579;52.046;8.532;2022-07-12T04:02:56;16.40;1.00
1181;DHT22;579;52.046;8.532;2022-07-12T04:05:26;16.40;1.00
1181;DHT22;579;52.046;8.532;2022-07-12T04:07:52;16.20;1.00
1181;DHT22;579;52.046;8.532;2022-07-12T04:12:59;16.10;1.00
1181;DHT22;579;52.046;8.532;2022-07-12T04:15:29;16.50;1.00
1181;DHT22;579;52.046;8.532;2022-07-12T04:17:56;16.50;1.00
1181;DHT22;579;52.046;8.532;2022-07-12T04:20:23;16.40;1.00
1181;DHT22;579;52.046;8.532;2022-07-12T04:22:52;16.40;1.00
1181;DHT22;579;52.046;8.532;2022-07-12T04:25:19;16.50;1.00
1181;DHT22;579;52.046;8.532;2022-07-12T04:32:54;16.70;1.00
1181;DHT22;579;52.046;8.532;2022-07-12T04:35:20;16.90;1.00
1181;DHT22;579;52.046;8.532;2022-07-12T04:37:47;16.90;1.00
1181;DHT22;579;52.046;8.532;2022-07-12T04:40:17;17.00;1.00
1181;DHT22;579;52.046;8.532;2022-07-12T04:42:43;17.00;1.00
1181;DHT22;579;52.046;8.532;2022-07-12T04:45:10;17.00;1.00
1181;DHT22;579;52.046;8.532;2022-07-12T04:47:37;17.00;1.00
1181;DHT22;579;52.046;8.532;2022-07-12T04:52:45;16.90;1.00
1181;DHT22;579;52.046;8.532;2022-07-12T04:55:13;17.00;1.00
1181;DHT22;579;52.046;8.532;2022-07-12T04:57:39;17.00;1.00
1181;DHT22;579;52.046;8.532;2022-07-12T05:00:08;17.30;1.00
1181;DHT22;579;52.046;8.532;2022-07-12T05:02:36;17.30;1.00
1181;DHT22;579;52.046;8.532;2022-07-12T05:05:04;17.50;1.00
1181;DHT22;579;52.046;8.532;2022-07-12T05:07:31;17.50;1.00
1181;DHT22;579;52.046;8.532;2022-07-12T05:12:32;17.90;1.00
1181;DHT22;579;52.046;8.532;2022-07-12T05:15:11;18.10;1.00
1181;DHT22;579;52.046;8.532;2022-07-12T05:17:38;17.80;1.00
1181;DHT22;579;52.046;8.532;2022-07-12T05:20:05;18.10;1.00
1181;DHT22;579;52.046;8.532;2022-07-12T05:22:32;18.40;1.00
1181;DHT22;579;52.046;8.532;2022-07-12T05:24:59;18.30;1.00
1181;DHT22;579;52.046;8.532;2022-07-12T05:30:15;18.30;1.00
1181;DHT22;579;52.046;8.532;2022-07-12T05:32:45;18.60;1.00
1181;DHT22;579;52.046;8.532;2022-07-12T05:35:13;18.70;1.00
1181;DHT22;579;52.046;8.532;2022-07-12T05:37:40;18.90;1.00
1181;DHT22;579;52.046;8.532;2022-07-12T05:40:10;19.00;1.00
1181;DHT22;579;52.046;8.532;2022-07-12T05:42:37;18.90;1.00
1181;DHT22;579;52.046;8.532;2022-07-12T05:45:05;19.00;1.00
1181;DHT22;579;52.046;8.532;2022-07-12T05:50:14;18.80;1.00
1181;DHT22;579;52.046;8.532;2022-07-12T05:52:42;18.90;1.00
1181;DHT22;579;52.046;8.532;2022-07-12T05:55:27;19.10;1.00
1181;DHT22;579;52.046;8.532;2022-07-12T05:57:53;19.40;1.00
1181;DHT22;579;52.046;8.532;2022-07-12T06:00:20;19.70;1.00
1181;DHT22;579;52.046;8.532;2022-07-12T06:02:47;19.60;1.00
1181;DHT22;579;52.046;8.532;2022-07-12T06:07:58;19.30;1.00
1181;DHT22;579;52.046;8.532;2022-07-12T06:10:25;19.10;1.00
1181;DHT22;579;52.046;8.532;2022-07-12T06:12:52;19.40;1.00
1181;DHT22;579;52.046;8.532;2022-07-12T06:15:19;19.40;1.00
1181;DHT22;579;52.046;8.532;2022-07-12T06:17:46;19.50;1.00
1181;DHT22;579;52.046;8.532;2022-07-12T06:20:14;19.70;1.00
1181;DHT22;579;52.046;8.532;2022-07-12T06:22:41;19.90;1.00
1181;DHT22;579;52.046;8.532;2022-07-12T06:27:49;20.00;1.00
1181;DHT22;579;52.046;8.532;2022-07-12T06:30:17;20.40;1.00
1181;DHT22;579;52.046;8.532;2022-07-12T06:32:45;20.40;1.00
1181;DHT22;579;52.046;8.532;2022-07-12T06:35:13;20.80;1.00
1181;DHT22;579;52.046;8.532;2022-07-12T06:37:41;20.80;1.00
1181;DHT22;579;52.046;8.532;2022-07-12T06:40:09;20.80;1.00
1181;DHT22;579;52.046;8.532;2022-07-12T06:42:40;20.80;1.00
1181;DHT22;579;52.046;8.532;2022-07-12T06:47:41;21.10;1.00
1181;DHT22;579;52.046;8.532;2022-07-12T06:50:09;21.30;1.00
1181;DHT22;579;52.046;8.532;2022-07-12T06:52:36;21.30;1.00
1181;DHT22;579;52.046;8.532;2022-07-12T06:55:03;21.30;1.00
1181;DHT22;579;52.046;8.532;2022-07-12T06:57:30;21.20;1.00
1181;DHT22;579;52.046;8.532;2022-07-12T06:59:58;21.40;1.00
1181;DHT22;579;52.046;8.532;2022-07-12T07:02:24;21.60;1.00
1181;DHT22;579;52.046;8.532;2022-07-12T07:08:31;21.20;1.00
1181;DHT22;579;52.046;8.532;2022-07-12T07:10:58;21.50;1.00
1181;DHT22;579;52.046;8.532;2022-07-12T07:13:27;21.60;1.00
1181;DHT22;579;52.046;8.532;2022-07-12T07:15:56;21.60;1.00
1181;DHT22;579;52.046;8.532;2022-07-12T07:18:23;21.60;1.00
1181;DHT22;579;52.046;8.532;2022-07-12T07:20:49;21.60;1.00
1181;DHT22;579;52.046;8.532;2022-07-12T07:23:19;21.20;1.00
1181;DHT22;579;52.046;8.532;2022-07-12T07:26:13;21.30;1.00
1181;DHT22;579;52.046;8.532;2022-07-12T07:28:40;21.40;1.00
1181;DHT22;579;52.046;8.532;2022-07-12T07:31:22;21.70;1.00
1181;DHT22;579;52.046;8.532;2022-07-12T07:33:48;21.80;1.00
1181;DHT22;579;52.046;8.532;2022-07-12T07:36:15;21.90;1.00
1181;DHT22;579;52.046;8.532;2022-07-12T07:38:45;22.30;1.00
1181;DHT22;579;52.046;8.532;2022-07-12T07:41:12;22.30;1.00
1181;DHT22;579;52.046;8.532;2022-07-12T07:46:18;22.50;1.00
1181;DHT22;579;52.046;8.532;2022-07-12T07:48:45;22.50;1.00
1181;DHT22;579;52.046;8.532;2022-07-12T07:51:12;22.50;1.00
1181;DHT22;579;52.046;8.532;2022-07-12T07:53:39;22.50;1.00
1181;DHT22;579;52.046;8.532;2022-07-12T07:56:09;22.50;1.00
1181;DHT22;579;52.046;8.532;2022-07-12T07:58:36;22.50;1.00
1181;DHT22;579;52.046;8.532;2022-07-12T08:01:03;22.70;1.00
1181;DHT22;579;52.046;8.532;2022-07-12T08:06:16;22.90;1.00
1181;DHT22;579;52.046;8.532;2022-07-12T08:08:43;23.40;1.00
1181;DHT22;579;52.046;8.532;2022-07-12T08:11:10;23.40;1.00
1181;DHT22;579;52.046;8.532;2022-07-12T08:13:37;23.40;1.00
1181;DHT22;579;52.046;8.532;2022-07-12T08:16:03;23.60;1.00
1181;DHT22;579;52.046;8.532;2022-07-12T08:18:33;23.70;1.00
1181;DHT22;579;52.046;8.532;2022-07-12T08:21:00;24.10;1.00
1181;DHT22;579;52.046;8.532;2022-07-12T08:26:01;24.10;1.00
1181;DHT22;579;52.046;8.532;2022-07-12T08:28:27;23.90;1.00
1181;DHT22;579;52.046;8.532;2022-07-12T08:30:54;23.90;1.00
1181;DHT22;579;52.046;8.532;2022-07-12T08:33:22;24.20;1.00
1181;DHT22;579;52.046;8.532;2022-07-12T08:35:49;24.40;1.00
1181;DHT22;579;52.046;8.532;2022-07-12T08:38:16;24.60;1.00
1181;DHT22;579;52.046;8.532;2022-07-12T08:40:43;25.00;1.00
1181;DHT22;579;52.046;8.532;2022-07-12T08:45:49;25.10;1.00
1181;DHT22;579;52.046;8.532;2022-07-12T08:48:16;25.40;1.00
1181;DHT22;579;52.046;8.532;2022-07-12T08:51:00;25.80;1.00
1181;DHT22;579;52.046;8.532;2022-07-12T08:53:27;25.90;1.00
1181;DHT22;579;52.046;8.532;2022-07-12T08:55:54;25.90;1.00
1181;DHT22;579;52.046;8.532;2022-07-12T08:58:21;26.00;1.00
1181;DHT22;579;52.046;8.532;2022-07-12T09:00:48;26.00;1.00
1181;DHT22;579;52.046;8.532;2022-07-12T09:05:54;25.90;1.00
1181;DHT22;579;52.046;8.532;2022-07-12T09:08:27;26.20;1.00
1181;DHT22;579;52.046;8.532;2022-07-12T09:10:58;26.20;1.00
1181;DHT22;579;52.046;8.532;2022-07-12T09:13:45;26.00;1.00
1181;DHT22;579;52.046;8.532;2022-07-12T09:16:20;26.40;1.00
1181;DHT22;579;52.046;8.532;2022-07-12T09:18:48;26.80;1.00
1181;DHT22;579;52.046;8.532;2022-07-12T09:25:34;26.80;1.00
1181;DHT22;579;52.046;8.532;2022-07-12T09:28:04;27.00;1.00
1181;DHT22;579;52.046;8.532;2022-07-12T09:30:32;27.00;1.00
1181;DHT22;579;52.046;8.532;2022-07-12T09:33:02;27.20;1.00
1181;DHT22;579;52.046;8.532;2022-07-12T09:35:59;27.30;1.00
1181;DHT22;579;52.046;8.532;2022-07-12T09:38:34;27.30;1.00
1181;DHT22;579;52.046;8.532;2022-07-12T09:46:00;26.90;1.00
1181;DHT22;579;52.046;8.532;2022-07-12T09:48:28;27.40;1.00
1181;DHT22;579;52.046;8.532;2022-07-12T09:50:57;27.40;1.00
1181;DHT22;579;52.046;8.532;2022-07-12T09:53:29;27.40;1.00
1181;DHT22;579;52.046;8.532;2022-07-12T09:55:57;27.50;1.00
1181;DHT22;579;52.046;8.532;2022-07-12T09:58:27;27.40;1.00
1181;DHT22;579;52.046;8.532;2022-07-12T10:00:59;27.70;1.00
1181;DHT22;579;52.046;8.532;2022-07-12T10:07:00;28.00;1.00
1181;DHT22;579;52.046;8.532;2022-07-12T10:09:27;28.00;1.00
1181;DHT22;579;52.046;8.532;2022-07-12T10:11:58;27.80;1.00
1181;DHT22;579;52.046;8.532;2022-07-12T10:14:25;28.50;1.00
1181;DHT22;579;52.046;8.532;2022-07-12T10:16:53;29.00;1.00
1181;DHT22;579;52.046;8.532;2022-07-12T10:19:31;28.70;1.00
1181;DHT22;579;52.046;8.532;2022-07-12T10:24:57;29.30;1.00
1181;DHT22;579;52.046;8.532;2022-07-12T10:27:31;29.30;1.00
1181;DHT22;579;52.046;8.532;2022-07-12T10:30:19;29.10;1.00
1181;DHT22;579;52.046;8.532;2022-07-12T10:32:49;29.20;1.00
1181;DHT22;579;52.046;8.532;2022-07-12T10:35:21;29.20;1.00
1181;DHT22;579;52.046;8.532;2022-07-12T10:38:18;29.40;1.00
1181;DHT22;579;52.046;8.532;2022-07-12T10:45:50;29.70;1.00
1181;DHT22;579;52.046;8.532;2022-07-12T10:48:22;30.30;1.00
1181;DHT22;579;52.046;8.532;2022-07-12T10:50:54;30.50;1.00
1181;DHT22;579;52.046;8.532;2022-07-12T10:53:23;30.60;1.00
1181;DHT22;579;52.046;8.532;2022-07-12T10:56:11;30.80;1.00
1181;DHT22;579;52.046;8.532;2022-07-12T10:58:42;30.70;1.00
1181;DHT22;579;52.046;8.532;2022-07-12T11:06:03;30.50;1.00
1181;DHT22;579;52.046;8.532;2022-07-12T11:08:30;29.80;1.00
1181;DHT22;579;52.046;8.532;2022-07-12T11:11:11;29.80;1.00
1181;DHT22;579;52.046;8.532;2022-07-12T11:13:38;30.10;1.00
1181;DHT22;579;52.046;8.532;2022-07-12T11:16:05;30.20;1.00
1181;DHT22;579;52.046;8.532;2022-07-12T11:18:35;30.00;1.00
1181;DHT22;579;52.046;8.532;2022-07-12T11:21:04;29.70;1.00
1181;DHT22;579;52.046;8.532;2022-07-12T11:27:03;30.00;1.00
1181;DHT22;579;52.046;8.532;2022-07-12T11:29:35;30.60;1.00
1181;DHT22;579;52.046;8.532;2022-07-12T11:32:04;30.80;1.00
1181;DHT22;579;52.046;8.532;2022-07-12T11:34:35;30.40;1.00
1181;DHT22;579;52.046;8.532;2022-07-12T11:37:05;30.30;1.00
1181;DHT22;579;52.046;8.532;2022-07-12T11:39:33;30.40;1.00
1181;DHT22;579;52.046;8.532;2022-07-12T11:42:03;30.50;1.00
1181;DHT22;579;52.046;8.532;2022-07-12T11:47:12;30.70;1.00
1181;DHT22;579;52.046;8.532;2022-07-12T11:49:43;30.40;1.00
1181;DHT22;579;52.046;8.532;2022-07-12T11:52:14;30.30;1.00
1181;DHT22;579;52.046;8.532;2022-07-12T11:54:40;30.40;1.00
1181;DHT22;579;52.046;8.532;2022-07-12T11:57:11;30.30;1.00
1181;DHT22;579;52.046;8.532;2022-07-12T11:59:39;29.80;1.00
1181;DHT22;579;52.046;8.532;2022-07-12T12:02:07;29.80;1.00
1181;DHT22;579;52.046;8.532;2022-07-12T12:09:06;29.70;1.00
1181;DHT22;579;52.046;8.532;2022-07-12T12:11:35;30.40;1.00
1181;DHT22;579;52.046;8.532;2022-07-12T12:14:02;30.10;1.00
1181;DHT22;579;52.046;8.532;2022-07-12T12:16:32;30.30;1.00
1181;DHT22;579;52.046;8.532;2022-07-12T12:19:00;30.40;1.00
1181;DHT22;579;52.046;8.532;2022-07-12T12:21:35;30.30;1.00
1181;DHT22;579;52.046;8.532;2022-07-12T12:26:58;30.50;1.00
1181;DHT22;579;52.046;8.532;2022-07-12T12:29:39;30.60;1.00
1181;DHT22;579;52.046;8.532;2022-07-12T12:32:17;31.10;1.00
1181;DHT22;579;52.046;8.532;2022-07-12T12:35:05;31.20;1.00
1181;DHT22;579;52.046;8.532;2022-07-12T12:37:32;31.00;1.00
1181;DHT22;579;52.046;8.532;2022-07-12T12:39:59;31.10;1.00
1181;DHT22;579;52.046;8.532;2022-07-12T12:47:06;31.00;1.00
1181;DHT22;579;52.046;8.532;2022-07-12T12:49:48;30.80;1.00
1181;DHT22;579;52.046;8.532;2022-07-12T12:52:21;31.00;1.00
1181;DHT22;579;52.046;8.532;2022-07-12T12:54:47;31.00;1.00
1181;DHT22;579;52.046;8.532;2022-07-12T12:57:15;31.10;1.00
1181;DHT22;579;52.046;8.532;2022-07-12T12:59:44;31.30;1.00
1181;DHT22;579;52.046;8.532;2022-07-12T13:02:13;31.40;1.00
1181;DHT22;579;52.046;8.532;2022-07-12T13:08:02;31.80;1.00
1181;DHT22;579;52.046;8.532;2022-07-12T13:10:30;31.90;1.00
1181;DHT22;579;52.046;8.532;2022-07-12T13:13:12;31.90;1.00
1181;DHT22;579;52.046;8.532;2022-07-12T13:15:40;32.00;1.00
1181;DHT22;579;52.046;8.532;2022-07-12T13:18:07;32.50;1.00
1181;DHT22;579;52.046;8.532;2022-07-12T13:20:37;32.70;1.00
1181;DHT22;579;52.046;8.532;2022-07-12T13:25:45;32.60;1.00
1181;DHT22;579;52.046;8.532;2022-07-12T13:28:13;32.20;1.00
1181;DHT22;579;52.046;8.532;2022-07-12T13:30:40;32.00;1.00
1181;DHT22;579;52.046;8.532;2022-07-12T13:33:07;31.90;1.00
1181;DHT22;579;52.046;8.532;2022-07-12T13:35:34;31.60;1.00
1181;DHT22;579;52.046;8.532;2022-07-12T13:38:03;31.30;1.00
1181;DHT22;579;52.046;8.532;2022-07-12T13:40:29;31.30;1.00
1181;DHT22;579;52.046;8.532;2022-07-12T13:46:00;31.10;1.00
1181;DHT22;579;52.046;8.532;2022-07-12T13:48:27;31.40;1.00
1181;DHT22;579;52.046;8.532;2022-07-12T13:50:54;31.70;1.00
1181;DHT22;579;52.046;8.532;2022-07-12T13:53:21;31.40;1.00
1181;DHT22;579;52.046;8.532;2022-07-12T13:55:48;31.20;1.00
1181;DHT22;579;52.046;8.532;2022-07-12T13:58:15;31.30;1.00
1181;DHT22;579;52.046;8.532;2022-07-12T14:00:42;31.40;1.00
1181;DHT22;579;52.046;8.532;2022-07-12T14:05:50;31.60;1.00
1181;DHT22;579;52.046;8.532;2022-07-12T14:08:16;31.70;1.00
1181;DHT22;579;52.046;8.532;2022-07-12T14:10:43;31.60;1.00
1181;DHT22;579;52.046;8.532;2022-07-12T14:13:10;32.00;1.00
1181;DHT22;579;52.046;8.532;2022-07-12T14:15:37;31.90;1.00
1181;DHT22;579;52.046;8.532;2022-07-12T14:18:05;31.90;1.00
1181;DHT22;579;52.046;8.532;2022-07-12T14:20:33;32.00;1.00
1181;DHT22;579;52.046;8.532;2022-07-12T14:27:01;31.90;1.00
1181;DHT22;579;52.046;8.532;2022-07-12T14:29:29;31.80;1.00
1181;DHT22;579;52.046;8.532;2022-07-12T14:31:56;31.70;1.00
1181;DHT22;579;52.046;8.532;2022-07-12T14:34:24;32.00;1.00
1181;DHT22;579;52.046;8.532;2022-07-12T14:36:50;32.40;1.00
1181;DHT22;579;52.046;8.532;2022-07-12T14:39:17;32.30;1.00
1181;DHT22;579;52.046;8.532;2022-07-12T14:41:45;32.30;1.00
1181;DHT22;579;52.046;8.532;2022-07-12T14:46:31;31.90;1.00
1181;DHT22;579;52.046;8.532;2022-07-12T14:48:58;32.00;1.00
1181;DHT22;579;52.046;8.532;2022-07-12T14:51:24;31.80;1.00
1181;DHT22;579;52.046;8.532;2022-07-12T14:53:51;31.90;1.00
1181;DHT22;579;52.046;8.532;2022-07-12T14:56:18;32.10;1.00
1181;DHT22;579;52.046;8.532;2022-07-12T14:58:45;32.40;1.00
1181;DHT22;579;52.046;8.532;2022-07-12T15:01:12;32.90;1.00
1181;DHT22;579;52.046;8.532;2022-07-12T15:06:02;33.30;1.00
1181;DHT22;579;52.046;8.532;2022-07-12T15:08:29;34.50;1.00
1181;DHT22;579;52.046;8.532;2022-07-12T15:10:56;35.10;1.00
1181;DHT22;579;52.046;8.532;2022-07-12T15:13:23;35.90;1.00
1181;DHT22;579;52.046;8.532;2022-07-12T15:15:49;36.60;1.00
1181;DHT22;579;52.046;8.532;2022-07-12T15:18:17;37.00;1.00
1181;DHT22;579;52.046;8.532;2022-07-12T15:20:46;37.60;1.00
1181;DHT22;579;52.046;8.532;2022-07-12T15:25:31;38.20;1.00
1181;DHT22;579;52.046;8.532;2022-07-12T15:27:58;39.50;1.00
1181;DHT22;579;52.046;8.532;2022-07-12T15:30:25;39.50;1.00
1181;DHT22;579;52.046;8.532;2022-07-12T15:32:52;39.30;1.00
1181;DHT22;579;52.046;8.532;2022-07-12T15:35:23;39.30;1.00
1181;DHT22;579;52.046;8.532;2022-07-12T15:37:54;39.00;1.00
1181;DHT22;579;52.046;8.532;2022-07-12T15:43:15;37.40;1.00
1181;DHT22;579;52.046;8.532;2022-07-12T15:45:42;36.40;1.00
1181;DHT22;579;52.046;8.532;2022-07-12T15:48:08;35.50;1.00
1181;DHT22;579;52.046;8.532;2022-07-12T15:50:35;34.90;1.00
1181;DHT22;579;52.046;8.532;2022-07-12T15:53:04;34.70;1.00
1181;DHT22;579;52.046;8.532;2022-07-12T15:55:49;34.20;1.00
1181;DHT22;579;52.046;8.532;2022-07-12T16:00:56;33.90;1.00
1181;DHT22;579;52.046;8.532;2022-07-12T16:03:23;33.30;1.00
1181;DHT22;579;52.046;8.532;2022-07-12T16:05:50;33.00;1.00
1181;DHT22;579;52.046;8.532;2022-07-12T16:08:17;32.60;1.00
1181;DHT22;579;52.046;8.532;2022-07-12T16:10:45;32.40;1.00
1181;DHT22;579;52.046;8.532;2022-07-12T16:13:13;32.50;1.00
1181;DHT22;579;52.046;8.532;2022-07-12T16:15:40;32.30;1.00
1181;DHT22;579;52.046;8.532;2022-07-12T16:20:47;31.90;1.00
1181;DHT22;579;52.046;8.532;2022-07-12T16:23:14;31.60;1.00
1181;DHT22;579;52.046;8.532;2022-07-12T16:25:41;31.40;1.00
1181;DHT22;579;52.046;8.532;2022-07-12T16:28:08;31.30;1.00
1181;DHT22;579;52.046;8.532;2022-07-12T16:30:35;30.90;1.00
1181;DHT22;579;52.046;8.532;2022-07-12T16:33:01;31.20;1.00
1181;DHT22;579;52.046;8.532;2022-07-12T16:35:28;30.80;1.00
1181;DHT22;579;52.046;8.532;2022-07-12T16:40:44;30.90;1.00
1181;DHT22;579;52.046;8.532;2022-07-12T16:43:11;30.90;1.00
1181;DHT22;579;52.046;8.532;2022-07-12T16:45:38;30.40;1.00
1181;DHT22;579;52.046;8.532;2022-07-12T16:48:05;30.20;1.00
1181;DHT22;579;52.046;8.532;2022-07-12T16:50:32;30.10;1.00
1181;DHT22;579;52.046;8.532;2022-07-12T16:53:00;30.30;1.00
1181;DHT22;579;52.046;8.532;2022-07-12T16:55:28;30.10;1.00
1181;DHT22;579;52.046;8.532;2022-07-12T17:00:30;30.00;1.00
1181;DHT22;579;52.046;8.532;2022-07-12T17:02:57;29.70;1.00
1181;DHT22;579;52.046;8.532;2022-07-12T17:05:24;29.90;1.00
1181;DHT22;579;52.046;8.532;2022-07-12T17:07:51;30.00;1.00
1181;DHT22;579;52.046;8.532;2022-07-12T17:10:18;30.00;1.00
1181;DHT22;579;52.046;8.532;2022-07-12T17:12:45;29.70;1.00
1181;DHT22;579;52.046;8.532;2022-07-12T17:15:12;29.70;1.00
1181;DHT22;579;52.046;8.532;2022-07-12T17:17:56;29.40;1.00
1181;DHT22;579;52.046;8.532;2022-07-12T17:20:23;29.40;1.00
1181;DHT22;579;52.046;8.532;2022-07-12T17:22:50;29.50;1.00
1181;DHT22;579;52.046;8.532;2022-07-12T17:25:17;29.30;1.00
1181;DHT22;579;52.046;8.532;2022-07-12T17:27:44;29.30;1.00
1181;DHT22;579;52.046;8.532;2022-07-12T17:30:11;29.40;1.00
1181;DHT22;579;52.046;8.532;2022-07-12T17:32:39;29.40;1.00
1181;DHT22;579;52.046;8.532;2022-07-12T17:37:49;29.50;1.00
1181;DHT22;579;52.046;8.532;2022-07-12T17:40:19;29.50;1.00
1181;DHT22;579;52.046;8.532;2022-07-12T17:42:47;29.50;1.00
1181;DHT22;579;52.046;8.532;2022-07-12T17:45:14;29.50;1.00
1181;DHT22;579;52.046;8.532;2022-07-12T17:47:41;29.40;1.00
1181;DHT22;579;52.046;8.532;2022-07-12T17:50:09;29.50;1.00
1181;DHT22;579;52.046;8.532;2022-07-12T17:52:44;29.40;1.00
1181;DHT22;579;52.046;8.532;2022-07-12T18:00:21;29.30;1.00
1181;DHT22;579;52.046;8.532;2022-07-12T18:02:53;29.30;1.00
1181;DHT22;579;52.046;8.532;2022-07-12T18:05:28;29.50;1.00
1181;DHT22;579;52.046;8.532;2022-07-12T18:07:56;29.30;1.00
1181;DHT22;579;52.046;8.532;2022-07-12T18:10:23;29.20;1.00
1181;DHT22;579;52.046;8.532;2022-07-12T18:12:56;29.10;1.00
1181;DHT22;579;52.046;8.532;2022-07-12T18:15:42;29.00;1.00
1181;DHT22;579;52.046;8.532;2022-07-12T18:23:21;29.00;1.00
1181;DHT22;579;52.046;8.532;2022-07-12T18:25:48;28.70;1.00
1181;DHT22;579;52.046;8.532;2022-07-12T18:28:16;28.50;1.00
1181;DHT22;579;52.046;8.532;2022-07-12T18:30:45;28.60;1.00
1181;DHT22;579;52.046;8.532;2022-07-12T18:33:13;28.50;1.00
1181;DHT22;579;52.046;8.532;2022-07-12T18:35:39;28.40;1.00
1181;DHT22;579;52.046;8.532;2022-07-12T18:38:08;28.20;1.00
1181;DHT22;579;52.046;8.532;2022-07-12T18:43:22;28.10;1.00
1181;DHT22;579;52.046;8.532;2022-07-12T18:45:49;27.90;1.00
1181;DHT22;579;52.046;8.532;2022-07-12T18:48:16;27.80;1.00
1181;DHT22;579;52.046;8.532;2022-07-12T18:50:42;27.80;1.00
1181;DHT22;579;52.046;8.532;2022-07-12T18:53:09;27.70;1.00
1181;DHT22;579;52.046;8.532;2022-07-12T18:55:36;27.50;1.00
1181;DHT22;579;52.046;8.532;2022-07-12T18:58:03;27.40;1.00
1181;DHT22;579;52.046;8.532;2022-07-12T19:03:08;27.40;1.00
1181;DHT22;579;52.046;8.532;2022-07-12T19:05:35;27.30;1.00
1181;DHT22;579;52.046;8.532;2022-07-12T19:08:02;27.20;1.00
1181;DHT22;579;52.046;8.532;2022-07-12T19:10:29;27.00;1.00
1181;DHT22;579;52.046;8.532;2022-07-12T19:12:55;26.90;1.00
1181;DHT22;579;52.046;8.532;2022-07-12T19:15:22;26.80;1.00
1181;DHT22;579;52.046;8.532;2022-07-12T19:17:49;26.70;1.00
1181;DHT22;579;52.046;8.532;2022-07-12T19:20:29;26.60;1.00
1181;DHT22;579;52.046;8.532;2022-07-12T19:22:56;26.50;1.00
1181;DHT22;579;52.046;8.532;2022-07-12T19:25:22;26.40;1.00
1181;DHT22;579;52.046;8.532;2022-07-12T19:27:49;26.30;1.00
1181;DHT22;579;52.046;8.532;2022-07-12T19:30:16;26.20;1.00
1181;DHT22;579;52.046;8.532;2022-07-12T19:32:43;26.20;1.00
1181;DHT22;579;52.046;8.532;2022-07-12T19:35:11;26.00;1.00
1181;DHT22;579;52.046;8.532;2022-07-12T19:40:18;25.90;1.00
1181;DHT22;579;52.046;8.532;2022-07-12T19:42:44;25.70;1.00
1181;DHT22;579;52.046;8.532;2022-07-12T19:45:11;25.60;1.00
1181;DHT22;579;52.046;8.532;2022-07-12T19:47:38;25.60;1.00
1181;DHT22;579;52.046;8.532;2022-07-12T19:50:06;25.50;1.00
1181;DHT22;579;52.046;8.532;2022-07-12T19:52:33;25.30;1.00